Time;durP1;ratioP1;P1;durP2;ratioP2;P2;SDS_P1;SDS_P2;PMS_P1;PMS_P2;Temp;Humidity;BMP_temperature;BMP_pressure;BME280_temperature;BME280_humidity;BME280_pressure;Samples;Min_cycle;Max_cycle;Signal;HPM_P1;HPM_P2
2022/09/04 00:00:20;;;;;;;7.18;4.50;;;;;;;;;;5039265;28;20034;-81
2022/09/04 00:02:54;;;;;;;6.20;4.55;;;;;;;;;;5030122;28;20037;-82
2022/09/04 00:05:26;;;;;;;6.15;4.32;;;;;;;;;;5039171;28;20040;-82
2022/09/04 00:08:11;;;;;;;6.68;4.68;;;;;;;;;;5036677;28;20032;-82
2022/09/04 00:10:56;;;;;;;6.13;4.57;;;;;;;;;;5040979;28;20030;-82
2022/09/04 00:13:37;;;;;;;6.45;4.68;;;;;;;;;;5032143;28;20088;-82
2022/09/04 00:16:06;;;;;;;5.75;4.13;;;;;;;;;;5035493;28;20072;-82
2022/09/04 00:18:45;;;;;;;6.95;4.32;;;;;;;;;;5037196;28;20117;-81
2022/09/04 00:21:15;;;;;;;5.60;4.30;;;;;;;;;;5038998;28;20025;-82
2022/09/04 00:23:43;;;;;;;8.00;5.00;;;;;;;;;;5029854;28;20040;-81
2022/09/04 00:26:21;;;;;;;6.15;4.38;;;;;;;;;;5033940;28;20044;-81
2022/09/04 00:28:54;;;;;;;6.05;3.90;;;;;;;;;;5028508;28;20795;-81
2022/09/04 00:31:20;;;;;;;;;;;;;;;;;;5040782;28;20037;-81
2022/09/04 00:33:54;;;;;;;5.50;4.00;;;;;;;;;;5041926;28;19909;-81
2022/09/04 00:36:21;;;;;;;5.63;4.35;;;;;;;;;;5021742;28;20034;-82
2022/09/04 00:38:52;;;;;;;6.28;3.80;;;;;;;;;;5023257;28;20050;-81
2022/09/04 00:41:26;;;;;;;5.88;4.25;;;;;;;;;;5036471;28;20075;-82
2022/09/04 00:43:54;;;;;;;6.03;3.67;;;;;;;;;;5039946;28;20037;-82
2022/09/04 00:46:39;;;;;;;5.85;4.03;;;;;;;;;;5039874;28;20033;-81
2022/09/04 00:49:32;;;;;;;5.65;4.28;;;;;;;;;;5035049;28;20025;-82
2022/09/04 00:51:57;;;;;;;;;;;;;;;;;;5038529;28;20179;-82
2022/09/04 00:54:42;;;;;;;6.00;3.92;;;;;;;;;;5039220;28;20360;-82
2022/09/04 00:57:26;;;;;;;5.55;3.78;;;;;;;;;;5031184;28;20032;-81
2022/09/04 01:00:03;;;;;;;5.72;4.00;;;;;;;;;;5035539;28;20040;-82
2022/09/04 01:02:48;;;;;;;5.82;3.95;;;;;;;;;;5040383;28;20021;-81
2022/09/04 01:05:33;;;;;;;7.15;3.97;;;;;;;;;;5040020;28;20017;-82
2022/09/04 01:08:06;;;;;;;5.50;3.75;;;;;;;;;;5037868;28;20496;-82
2022/09/04 01:10:47;;;;;;;6.03;3.75;;;;;;;;;;5039344;28;20511;-82
2022/09/04 01:13:32;;;;;;;6.15;4.85;;;;;;;;;;5037726;28;20029;-82
2022/09/04 01:16:04;;;;;;;5.70;3.50;;;;;;;;;;5037238;28;20516;-82
2022/09/04 01:18:32;;;;;;;6.40;4.00;;;;;;;;;;5037087;28;20053;-82
2022/09/04 01:21:32;;;;;;;5.82;3.55;;;;;;;;;;5029337;28;20026;-82
2022/09/04 01:24:00;;;;;;;4.72;3.28;;;;;;;;;;5036837;28;20044;-82
2022/09/04 01:26:42;;;;;;;5.75;4.07;;;;;;;;;;5038960;28;20068;-82
2022/09/04 01:29:27;;;;;;;5.95;3.80;;;;;;;;;;5022387;28;20025;-82
2022/09/04 01:32:12;;;;;;;6.00;3.70;;;;;;;;;;5041136;28;20022;-82
2022/09/04 01:34:58;;;;;;;6.25;4.10;;;;;;;;;;5023497;28;20037;-81
2022/09/04 01:37:24;;;;;;;5.15;3.25;;;;;;;;;;5039852;28;20041;-82
2022/09/04 01:40:10;;;;;;;5.13;3.72;;;;;;;;;;5033876;28;20029;-82
2022/09/04 01:42:49;;;;;;;6.13;3.80;;;;;;;;;;5035881;28;20117;-82
2022/09/04 01:45:18;;;;;;;5.28;3.80;;;;;;;;;;5040663;28;20017;-82
2022/09/04 01:47:49;;;;;;;5.28;3.67;;;;;;;;;;5040567;28;20048;-82
2022/09/04 01:50:21;;;;;;;5.35;3.65;;;;;;;;;;5036909;28;20057;-82
2022/09/04 01:52:47;;;;;;;5.32;3.63;;;;;;;;;;5025597;28;20471;-81
2022/09/04 01:55:31;;;;;;;5.30;3.55;;;;;;;;;;5040524;28;20065;-82
2022/09/04 01:58:18;;;;;;;6.07;4.00;;;;;;;;;;5042079;28;20139;-82
2022/09/04 02:00:52;;;;;;;5.57;3.80;;;;;;;;;;5044154;28;20029;-82
2022/09/04 02:03:24;;;;;;;5.65;3.97;;;;;;;;;;5044007;28;20031;-82
2022/09/04 02:06:00;;;;;;;5.63;3.80;;;;;;;;;;5036822;28;20022;-82
2022/09/04 02:08:34;;;;;;;5.70;3.92;;;;;;;;;;5027111;28;20026;-82
2022/09/04 02:11:04;;;;;;;5.55;3.63;;;;;;;;;;5046035;28;20081;-82
2022/09/04 02:13:30;;;;;;;5.93;4.28;;;;;;;;;;5031479;28;20097;-82
2022/09/04 02:16:19;;;;;;;6.50;4.20;;;;;;;;;;5027033;28;20026;-82
2022/09/04 02:18:49;;;;;;;5.97;4.32;;;;;;;;;;5041926;28;20057;-82
2022/09/04 02:21:22;;;;;;;6.18;4.30;;;;;;;;;;5048340;28;20032;-82
2022/09/04 02:23:52;;;;;;;5.82;4.50;;;;;;;;;;5049310;28;20091;-82
2022/09/04 02:26:41;;;;;;;5.53;4.18;;;;;;;;;;5050478;28;20018;-82
2022/09/04 02:29:10;;;;;;;6.63;4.40;;;;;;;;;;5043920;28;20100;-82
2022/09/04 02:31:39;;;;;;;5.78;4.45;;;;;;;;;;5033838;28;20053;-82
2022/09/04 02:34:09;;;;;;;5.93;4.28;;;;;;;;;;5045688;28;20041;-82
2022/09/04 02:36:45;;;;;;;6.90;4.18;;;;;;;;;;5047162;28;20030;-82
2022/09/04 02:39:11;;;;;;;6.32;4.32;;;;;;;;;;5046950;28;20029;-82
2022/09/04 02:41:46;;;;;;;6.40;4.43;;;;;;;;;;5047357;28;20561;-82
2022/09/04 02:44:12;;;;;;;5.22;3.95;;;;;;;;;;5034475;28;20152;-82
2022/09/04 02:46:59;;;;;;;6.20;4.15;;;;;;;;;;5032026;28;20025;-82
2022/09/04 02:49:47;;;;;;;5.72;3.92;;;;;;;;;;5032875;28;20033;-82
2022/09/04 02:52:20;;;;;;;5.95;4.47;;;;;;;;;;5040445;28;20101;-82
2022/09/04 02:54:49;;;;;;;6.43;3.92;;;;;;;;;;5041776;28;20762;-82
2022/09/04 02:57:38;;;;;;;6.00;3.97;;;;;;;;;;5032614;28;20092;-82
2022/09/04 03:00:22;;;;;;;5.82;4.00;;;;;;;;;;5043968;28;20033;-82
2022/09/04 03:02:55;;;;;;;5.95;4.70;;;;;;;;;;5040992;28;20030;-82
2022/09/04 03:05:25;;;;;;;5.78;3.97;;;;;;;;;;5025113;28;20032;-82
2022/09/04 03:08:00;;;;;;;6.60;4.45;;;;;;;;;;5035774;28;20044;-82
2022/09/04 03:10:40;;;;;;;5.25;3.67;;;;;;;;;;5044960;28;20093;-82
2022/09/04 03:13:10;;;;;;;6.72;4.75;;;;;;;;;;5028037;28;20029;-82
2022/09/04 03:15:37;;;;;;;6.22;4.18;;;;;;;;;;5023408;28;20102;-80
2022/09/04 03:18:06;;;;;;;6.20;4.10;;;;;;;;;;5028076;28;20161;-79
2022/09/04 03:20:36;;;;;;;6.05;4.03;;;;;;;;;;5042015;28;20060;-79
2022/09/04 03:23:11;;;;;;;6.80;4.15;;;;;;;;;;5042471;28;20064;-79
2022/09/04 03:25:37;;;;;;;5.80;4.15;;;;;;;;;;5022743;28;20049;-79
2022/09/04 03:28:04;;;;;;;5.28;3.92;;;;;;;;;;5033818;28;20029;-79
2022/09/04 03:30:33;;;;;;;6.47;4.13;;;;;;;;;;5036710;28;20022;-79
2022/09/04 03:33:02;;;;;;;5.45;3.80;;;;;;;;;;5027163;28;20030;-79
2022/09/04 03:35:40;;;;;;;5.78;4.15;;;;;;;;;;5022423;28;20058;-79
2022/09/04 03:38:19;;;;;;;6.00;3.65;;;;;;;;;;5024194;28;20030;-79
2022/09/04 03:41:03;;;;;;;6.50;3.85;;;;;;;;;;5037145;28;20021;-79
2022/09/04 03:43:38;;;;;;;5.70;3.75;;;;;;;;;;5029241;28;20029;-79
2022/09/04 03:46:10;;;;;;;5.47;3.58;;;;;;;;;;5042835;28;20094;-79
2022/09/04 03:48:51;;;;;;;6.07;3.90;;;;;;;;;;5041218;28;20025;-79
2022/09/04 03:51:23;;;;;;;5.85;3.88;;;;;;;;;;5022199;28;20081;-79
2022/09/04 03:54:03;;;;;;;5.40;3.97;;;;;;;;;;5021145;28;20125;-79
2022/09/04 03:56:29;;;;;;;5.88;4.13;;;;;;;;;;5024814;28;20092;-79
2022/09/04 03:59:05;;;;;;;5.47;3.47;;;;;;;;;;5037309;28;20033;-79
2022/09/04 04:01:54;;;;;;;5.20;3.60;;;;;;;;;;5040813;28;20029;-79
2022/09/04 04:04:20;;;;;;;6.05;3.50;;;;;;;;;;5037882;28;20041;-79
2022/09/04 04:06:56;;;;;;;6.38;3.53;;;;;;;;;;5036827;28;20075;-79
2022/09/04 04:09:40;;;;;;;6.20;4.03;;;;;;;;;;5031566;28;20079;-79
2022/09/04 04:12:38;;;;;;;5.28;3.20;;;;;;;;;;5042234;28;20528;-79
2022/09/04 04:15:13;;;;;;;5.57;3.90;;;;;;;;;;5034752;28;20527;-80
2022/09/04 04:18:01;;;;;;;5.43;4.00;;;;;;;;;;5037848;28;20521;-80
2022/09/04 04:20:43;;;;;;;6.10;4.00;;;;;;;;;;5024052;28;20064;-80
2022/09/04 04:23:28;;;;;;;5.70;3.92;;;;;;;;;;5041763;28;20026;-80
2022/09/04 04:26:12;;;;;;;5.70;3.95;;;;;;;;;;5041328;28;20432;-80
2022/09/04 04:28:41;;;;;;;5.57;3.75;;;;;;;;;;5042167;28;20049;-80
2022/09/04 04:31:13;;;;;;;5.63;3.97;;;;;;;;;;5035064;28;20022;-80
2022/09/04 04:33:42;;;;;;;5.43;4.13;;;;;;;;;;5029991;28;20060;-80
2022/09/04 04:36:17;;;;;;;5.32;3.60;;;;;;;;;;5040690;28;20034;-80
2022/09/04 04:38:46;;;;;;;6.10;3.35;;;;;;;;;;5039083;28;20109;-80
2022/09/04 04:42:02;;;;;;;5.85;3.80;;;;;;;;;;5036267;28;20092;-80
2022/09/04 04:45:48;;;;;;;8.00;4.30;;;;;;;;;;5026139;28;20061;-80
2022/09/04 04:47:18;;;;;;;10.07;5.53;;;;;;;;;;5030991;28;20053;-80
2022/09/04 04:50:05;;;;;;;9.20;5.43;;;;;;;;;;5016028;28;20478;-78
2022/09/04 04:52:37;;;;;;;9.02;5.20;;;;;;;;;;5029894;28;20029;-78
2022/09/04 04:55:15;;;;;;;9.85;5.47;;;;;;;;;;5031712;28;20081;-78
2022/09/04 04:57:59;;;;;;;9.02;5.32;;;;;;;;;;5035201;28;20481;-78
2022/09/04 05:00:40;;;;;;;8.38;5.65;;;;;;;;;;5033611;28;20432;-78
2022/09/04 05:03:15;;;;;;;7.75;5.05;;;;;;;;;;5029674;28;20035;-78
2022/09/04 05:05:45;;;;;;;8.13;5.35;;;;;;;;;;5028834;28;20469;-78
2022/09/04 05:08:20;;;;;;;8.32;4.93;;;;;;;;;;5030529;28;20018;-78
2022/09/04 05:10:53;;;;;;;7.30;5.15;;;;;;;;;;5032219;28;20025;-78
2022/09/04 05:13:39;;;;;;;6.75;4.97;;;;;;;;;;5031040;28;20021;-78
2022/09/04 05:16:11;;;;;;;7.32;5.45;;;;;;;;;;5029755;28;20108;-78
2022/09/04 05:18:37;;;;;;;;;;;;;;;;;;5037138;28;20030;-78
2022/09/04 05:21:03;;;;;;;7.30;5.32;;;;;;;;;;5033472;28;20320;-78
2022/09/04 05:23:38;;;;;;;7.60;5.75;;;;;;;;;;5031614;28;20152;-79
2022/09/04 05:26:16;;;;;;;7.93;5.10;;;;;;;;;;5039380;28;20115;-79
2022/09/04 05:28:58;;;;;;;7.07;4.82;;;;;;;;;;5041739;28;20033;-80
2022/09/04 05:31:40;;;;;;;7.53;4.75;;;;;;;;;;5040510;28;20033;-80
2022/09/04 05:34:15;;;;;;;7.55;5.00;;;;;;;;;;5037378;28;20049;-80
2022/09/04 05:36:45;;;;;;;6.65;4.97;;;;;;;;;;5045876;28;20040;-80
2022/09/04 05:39:24;;;;;;;8.90;5.20;;;;;;;;;;5042722;28;20031;-80
2022/09/04 05:41:58;;;;;;;7.32;4.90;;;;;;;;;;5044788;28;20073;-80
2022/09/04 05:44:35;;;;;;;6.05;4.57;;;;;;;;;;5044315;28;20045;-80
2022/09/04 05:47:08;;;;;;;6.75;4.68;;;;;;;;;;5046606;28;20018;-81
2022/09/04 05:49:53;;;;;;;6.57;4.60;;;;;;;;;;5038512;28;20175;-80
2022/09/04 05:52:28;;;;;;;6.38;4.10;;;;;;;;;;5033756;28;20034;-80
2022/09/04 05:55:04;;;;;;;5.95;4.15;;;;;;;;;;5049146;28;20592;-81
2022/09/04 05:57:36;;;;;;;6.30;4.22;;;;;;;;;;5035513;28;20048;-80
2022/09/04 06:00:05;;;;;;;6.65;4.90;;;;;;;;;;5046465;28;20021;-81
2022/09/04 06:02:31;;;;;;;7.13;4.90;;;;;;;;;;5040391;28;20114;-80
2022/09/04 06:05:00;;;;;;;6.55;4.65;;;;;;;;;;5042435;28;20014;-80
2022/09/04 06:07:33;;;;;;;6.68;4.28;;;;;;;;;;5034838;28;20026;-80
2022/09/04 06:09:59;;;;;;;6.43;4.65;;;;;;;;;;5042211;28;20026;-80
2022/09/04 06:12:28;;;;;;;6.53;4.35;;;;;;;;;;5039525;28;20039;-80
2022/09/04 06:15:13;;;;;;;7.15;4.38;;;;;;;;;;5048963;28;20040;-80
2022/09/04 06:18:02;;;;;;;6.72;4.80;;;;;;;;;;5046108;28;20108;-80
2022/09/04 06:20:37;;;;;;;6.65;4.60;;;;;;;;;;5033325;28;20067;-80
2022/09/04 06:23:22;;;;;;;7.25;5.10;;;;;;;;;;5043405;28;20022;-80
2022/09/04 06:26:07;;;;;;;7.05;5.03;;;;;;;;;;5042806;28;20064;-80
2022/09/04 06:28:50;;;;;;;7.18;5.32;;;;;;;;;;5041104;28;20033;-80
2022/09/04 06:31:19;;;;;;;7.57;4.97;;;;;;;;;;5044037;28;20021;-80
2022/09/04 06:33:45;;;;;;;8.80;5.53;;;;;;;;;;5046258;28;20021;-80
2022/09/04 06:36:11;;;;;;;7.40;5.43;;;;;;;;;;5033577;28;20030;-80
2022/09/04 06:38:56;;;;;;;7.30;5.45;;;;;;;;;;5032408;28;20029;-80
2022/09/04 06:41:47;;;;;;;7.22;5.63;;;;;;;;;;5040397;28;20041;-79
2022/09/04 06:44:32;;;;;;;7.63;5.45;;;;;;;;;;5039559;28;20064;-79
2022/09/04 06:47:01;;;;;;;8.30;5.72;;;;;;;;;;5035220;28;20473;-80
2022/09/04 06:49:39;;;;;;;7.85;5.82;;;;;;;;;;5037970;28;20032;-80
2022/09/04 06:52:11;;;;;;;7.93;5.78;;;;;;;;;;5029220;28;20026;-80
2022/09/04 06:54:40;;;;;;;8.52;6.05;;;;;;;;;;5034424;28;20022;-80
2022/09/04 06:57:27;;;;;;;7.68;5.40;;;;;;;;;;5045673;28;20081;-80
2022/09/04 07:00:02;;;;;;;9.57;6.10;;;;;;;;;;5044823;28;20025;-80
2022/09/04 07:02:48;;;;;;;8.65;6.18;;;;;;;;;;5026569;28;20094;-80
2022/09/04 07:05:21;;;;;;;10.27;6.35;;;;;;;;;;5032295;28;20441;-80
2022/09/04 07:08:06;;;;;;;10.52;7.13;;;;;;;;;;5043398;28;20025;-81
2022/09/04 07:10:34;;;;;;;10.63;7.40;;;;;;;;;;5037220;28;20037;-80
2022/09/04 07:13:07;;;;;;;9.38;7.40;;;;;;;;;;5021766;28;20026;-80
2022/09/04 07:15:45;;;;;;;12.05;7.70;;;;;;;;;;5020919;28;20477;-81
2022/09/04 07:18:11;;;;;;;10.18;7.10;;;;;;;;;;5038038;28;20044;-80
2022/09/04 07:20:43;;;;;;;9.75;7.43;;;;;;;;;;5037357;28;20468;-80
2022/09/04 07:23:34;;;;;;;8.98;7.50;;;;;;;;;;5034836;28;20546;-80
2022/09/04 07:26:10;;;;;;;12.43;7.75;;;;;;;;;;5036404;28;20025;-80
2022/09/04 07:28:36;;;;;;;8.32;6.72;;;;;;;;;;5027390;28;20053;-80
2022/09/04 07:31:05;;;;;;;9.70;8.00;;;;;;;;;;5022189;28;20041;-80
2022/09/04 07:33:49;;;;;;;9.48;6.90;;;;;;;;;;5033636;28;20029;-81
2022/09/04 07:36:21;;;;;;;9.60;7.70;;;;;;;;;;5031207;28;20026;-81
2022/09/04 07:38:51;;;;;;;9.57;6.68;;;;;;;;;;5019901;28;20121;-81
2022/09/04 07:41:29;;;;;;;10.00;6.85;;;;;;;;;;5036650;28;20380;-81
2022/09/04 07:44:02;;;;;;;8.90;6.93;;;;;;;;;;5038823;28;20021;-80
2022/09/04 07:46:34;;;;;;;9.70;7.40;;;;;;;;;;5040062;28;20037;-81
2022/09/04 07:49:03;;;;;;;;;;;;;;;;;;5034487;28;20034;-80
2022/09/04 07:51:34;;;;;;;8.80;7.10;;;;;;;;;;5033080;28;20399;-80
2022/09/04 07:54:19;;;;;;;9.40;6.57;;;;;;;;;;5040335;28;20081;-80
2022/09/04 07:57:00;;;;;;;8.13;6.63;;;;;;;;;;5040859;28;20036;-80
2022/09/04 07:59:29;;;;;;;8.15;6.65;;;;;;;;;;5029235;28;20038;-80
2022/09/04 08:01:55;;;;;;;6.32;4.80;;;;;;;;;;5043114;28;20117;-82
2022/09/04 08:04:31;;;;;;;7.78;6.32;;;;;;;;;;5044982;28;20029;-80
2022/09/04 08:07:04;;;;;;;7.50;6.18;;;;;;;;;;5046292;28;20021;-80
2022/09/04 08:09:36;;;;;;;8.60;6.35;;;;;;;;;;5045734;28;20045;-80
2022/09/04 08:12:11;;;;;;;8.02;6.38;;;;;;;;;;5045627;28;20488;-80
2022/09/04 08:14:51;;;;;;;10.48;9.15;;;;;;;;;;5048395;28;20032;-80
2022/09/04 08:17:19;;;;;;;9.95;8.88;;;;;;;;;;5033082;28;20044;-80
2022/09/04 08:19:56;;;;;;;11.48;10.27;;;;;;;;;;5046863;28;20067;-79
2022/09/04 08:22:31;;;;;;;11.10;9.88;;;;;;;;;;5048579;28;20042;-80
2022/09/04 08:24:57;;;;;;;12.05;10.32;;;;;;;;;;5047186;28;20024;-80
2022/09/04 08:27:48;;;;;;;10.57;9.30;;;;;;;;;;5038534;28;20036;-79
2022/09/04 08:30:17;;;;;;;11.35;10.15;;;;;;;;;;5041902;28;20036;-78
2022/09/04 08:33:01;;;;;;;10.57;9.48;;;;;;;;;;5036914;28;20120;-79
2022/09/04 08:35:50;;;;;;;11.20;9.80;;;;;;;;;;5038180;28;20043;-79
2022/09/04 08:38:35;;;;;;;10.45;9.30;;;;;;;;;;5031706;28;20045;-79
2022/09/04 08:41:05;;;;;;;9.70;8.13;;;;;;;;;;5039071;28;20029;-79
2022/09/04 08:43:43;;;;;;;9.65;8.13;;;;;;;;;;5041244;28;20050;-79
2022/09/04 08:46:21;;;;;;;10.10;8.65;;;;;;;;;;5043216;28;20044;-79
2022/09/04 08:48:55;;;;;;;12.18;8.85;;;;;;;;;;5033696;28;20031;-80
2022/09/04 08:51:39;;;;;;;9.30;8.40;;;;;;;;;;5031726;28;20048;-79
2022/09/04 08:54:20;;;;;;;10.48;8.63;;;;;;;;;;5023807;28;20028;-80
2022/09/04 08:56:52;;;;;;;9.77;7.90;;;;;;;;;;5029198;28;20385;-79
2022/09/04 08:59:18;;;;;;;10.57;7.88;;;;;;;;;;5023231;28;20402;-80
2022/09/04 09:01:53;;;;;;;9.57;7.55;;;;;;;;;;5019682;28;20021;-80
2022/09/04 09:04:25;;;;;;;8.95;7.32;;;;;;;;;;5034757;28;20025;-79
2022/09/04 09:07:12;;;;;;;10.73;8.70;;;;;;;;;;5036240;28;20030;-80
2022/09/04 09:09:44;;;;;;;8.73;7.82;;;;;;;;;;5035392;28;20474;-80
2022/09/04 09:12:29;;;;;;;10.02;8.85;;;;;;;;;;5034659;28;20348;-81
2022/09/04 09:15:16;;;;;;;8.52;7.60;;;;;;;;;;5035605;28;20159;-81
2022/09/04 09:18:01;;;;;;;9.13;7.82;;;;;;;;;;5031091;28;20140;-80
2022/09/04 09:20:37;;;;;;;9.32;8.18;;;;;;;;;;5032354;28;20132;-81
2022/09/04 09:23:15;;;;;;;11.07;8.65;;;;;;;;;;5031340;28;20041;-81
2022/09/04 09:25:41;;;;;;;10.52;9.20;;;;;;;;;;5028588;28;20022;-81
2022/09/04 09:28:13;;;;;;;9.65;8.65;;;;;;;;;;5018906;28;20014;-81
2022/09/04 09:30:58;;;;;;;10.02;9.02;;;;;;;;;;5027319;28;20034;-81
2022/09/04 09:33:43;;;;;;;10.52;9.18;;;;;;;;;;5023248;28;20097;-81
2022/09/04 09:36:10;;;;;;;10.35;9.05;;;;;;;;;;5023633;28;20039;-81
2022/09/04 09:38:55;;;;;;;10.13;8.43;;;;;;;;;;5025442;28;20025;-82
2022/09/04 09:41:21;;;;;;;9.43;8.43;;;;;;;;;;5026026;28;20108;-81
2022/09/04 09:43:50;;;;;;;10.20;9.10;;;;;;;;;;5030364;28;20480;-81
2022/09/04 09:46:22;;;;;;;9.40;8.40;;;;;;;;;;5033988;28;20056;-81
2022/09/04 09:49:07;;;;;;;9.88;8.88;;;;;;;;;;5024877;28;20030;-82
2022/09/04 09:52:02;;;;;;;9.75;8.75;;;;;;;;;;5014222;28;20064;-81
2022/09/04 09:54:54;;;;;;;9.95;8.73;;;;;;;;;;5025266;28;20096;-81
2022/09/04 09:57:23;;;;;;;10.15;8.98;;;;;;;;;;5020407;28;20029;-81
2022/09/04 10:00:07;;;;;;;10.70;9.60;;;;;;;;;;5019266;28;20045;-82
2022/09/04 10:02:42;;;;;;;10.80;9.50;;;;;;;;;;5023647;28;20487;-81
2022/09/04 10:05:11;;;;;;;10.13;9.05;;;;;;;;;;5030234;28;20025;-81
2022/09/04 10:07:37;;;;;;;10.23;9.10;;;;;;;;;;5024153;28;20017;-81
2022/09/04 10:10:03;;;;;;;9.98;8.93;;;;;;;;;;5015500;28;20405;-81
2022/09/04 10:12:36;;;;;;;10.00;9.00;;;;;;;;;;5013695;28;20030;-81
2022/09/04 10:15:21;;;;;;;9.80;8.80;;;;;;;;;;5033836;28;20041;-81
2022/09/04 10:17:46;;;;;;;9.95;8.95;;;;;;;;;;5021456;28;20032;-81
2022/09/04 10:20:22;;;;;;;10.18;9.07;;;;;;;;;;5025826;28;20045;-83
2022/09/04 10:22:48;;;;;;;10.23;9.07;;;;;;;;;;5027948;28;20037;-81
2022/09/04 10:25:23;;;;;;;10.63;8.93;;;;;;;;;;5027494;28;20025;-82
2022/09/04 10:27:54;;;;;;;10.25;8.88;;;;;;;;;;5026990;28;20030;-81
2022/09/04 10:30:21;;;;;;;10.63;8.27;;;;;;;;;;5031086;28;20037;-81
2022/09/04 10:33:11;;;;;;;9.55;8.63;;;;;;;;;;5035189;28;20029;-81
2022/09/04 10:35:48;;;;;;;9.77;8.77;;;;;;;;;;5021071;28;20037;-81
2022/09/04 10:38:25;;;;;;;10.23;9.23;;;;;;;;;;5027919;28;20382;-81
2022/09/04 10:41:09;;;;;;;8.93;8.00;;;;;;;;;;5016818;28;20025;-81
2022/09/04 10:43:44;;;;;;;9.18;8.27;;;;;;;;;;5027119;28;20028;-81
2022/09/04 10:46:16;;;;;;;9.80;8.30;;;;;;;;;;5025478;28;20034;-81
2022/09/04 10:48:45;;;;;;;9.15;8.25;;;;;;;;;;5018093;28;20026;-81
2022/09/04 10:51:32;;;;;;;9.90;8.07;;;;;;;;;;5028536;28;20137;-81
2022/09/04 10:54:07;;;;;;;9.75;8.75;;;;;;;;;;5031720;28;20037;-82
2022/09/04 10:56:34;;;;;;;9.23;8.30;;;;;;;;;;5031442;28;20084;-82
2022/09/04 10:59:19;;;;;;;8.90;7.85;;;;;;;;;;5039813;28;20025;-82
2022/09/04 11:02:00;;;;;;;8.77;7.88;;;;;;;;;;5023627;28;20022;-81
2022/09/04 11:04:46;;;;;;;9.38;7.85;;;;;;;;;;5032886;28;20048;-81
2022/09/04 11:07:31;;;;;;;8.25;7.45;;;;;;;;;;5019309;28;20105;-82
2022/09/04 11:10:06;;;;;;;9.18;7.18;;;;;;;;;;5031470;28;20567;-81
2022/09/04 11:12:41;;;;;;;8.95;7.40;;;;;;;;;;5018458;28;20032;-82
2022/09/04 11:15:13;;;;;;;8.30;7.43;;;;;;;;;;5026337;28;20051;-81
2022/09/04 11:17:54;;;;;;;8.30;7.13;;;;;;;;;;5036379;28;20022;-81
2022/09/04 11:20:39;;;;;;;7.78;6.97;;;;;;;;;;5021184;28;20050;-81
2022/09/04 11:23:14;;;;;;;8.13;7.00;;;;;;;;;;5037031;28;20025;-81
2022/09/04 11:26:04;;;;;;;8.15;6.85;;;;;;;;;;5026812;28;20026;-81
2022/09/04 11:28:43;;;;;;;8.32;6.90;;;;;;;;;;5018213;28;20022;-82
2022/09/04 11:31:09;;;;;;;7.50;6.70;;;;;;;;;;5030975;28;20124;-81
2022/09/04 11:33:37;;;;;;;7.53;6.70;;;;;;;;;;5018778;28;20089;-81
2022/09/04 11:36:16;;;;;;;7.25;6.47;;;;;;;;;;5031457;28;20040;-82
2022/09/04 11:38:42;;;;;;;7.57;6.45;;;;;;;;;;5017319;28;20018;-82
2022/09/04 11:41:11;;;;;;;8.13;6.88;;;;;;;;;;5023464;28;20032;-81
2022/09/04 11:43:56;;;;;;;7.70;6.85;;;;;;;;;;5022422;28;20020;-81
2022/09/04 11:46:40;;;;;;;7.68;6.70;;;;;;;;;;5022424;28;20080;-82
2022/09/04 11:49:19;;;;;;;7.15;6.40;;;;;;;;;;5033323;28;20044;-81
2022/09/04 11:52:04;;;;;;;7.60;6.53;;;;;;;;;;5027897;28;20044;-81
2022/09/04 11:54:39;;;;;;;7.72;6.40;;;;;;;;;;5033899;28;20036;-81
2022/09/04 11:57:23;;;;;;;7.18;6.47;;;;;;;;;;5034836;28;20026;-81
2022/09/04 11:59:58;;;;;;;8.57;6.80;;;;;;;;;;5028799;28;20128;-82
2022/09/04 12:02:53;;;;;;;8.18;6.38;;;;;;;;;;5017469;28;20097;-81
2022/09/04 12:05:22;;;;;;;8.05;7.20;;;;;;;;;;5014625;28;20037;-81
2022/09/04 12:08:16;;;;;;;8.35;7.00;;;;;;;;;;5016877;28;20029;-81
2022/09/04 12:10:54;;;;;;;7.07;6.38;;;;;;;;;;5026524;28;20397;-82
2022/09/04 12:13:45;;;;;;;7.20;6.18;;;;;;;;;;5038049;28;20033;-81
2022/09/04 12:16:17;;;;;;;6.40;5.50;;;;;;;;;;5028371;28;20052;-82
2022/09/04 12:19:03;;;;;;;7.50;6.18;;;;;;;;;;5026994;28;20045;-81
2022/09/04 12:21:39;;;;;;;8.15;7.10;;;;;;;;;;5023743;28;20049;-82
2022/09/04 12:24:24;;;;;;;8.73;6.72;;;;;;;;;;5020020;28;20026;-82
2022/09/04 12:27:08;;;;;;;6.90;5.70;;;;;;;;;;5029283;28;20025;-82
2022/09/04 12:29:49;;;;;;;6.70;5.72;;;;;;;;;;5037018;28;20025;-82
2022/09/04 12:32:24;;;;;;;7.15;6.03;;;;;;;;;;5024300;28;20114;-82
2022/09/04 12:34:59;;;;;;;6.90;6.20;;;;;;;;;;5023849;28;20022;-82
2022/09/04 12:37:42;;;;;;;7.60;6.70;;;;;;;;;;5037859;28;20021;-82
2022/09/04 12:40:15;;;;;;;7.38;6.22;;;;;;;;;;5037954;28;20055;-82
2022/09/04 12:42:50;;;;;;;7.00;5.88;;;;;;;;;;5036518;28;20048;-82
2022/09/04 12:45:24;;;;;;;6.93;5.43;;;;;;;;;;5028769;28;20017;-81
2022/09/04 12:48:10;;;;;;;7.45;5.63;;;;;;;;;;5017699;28;20045;-82
2022/09/04 12:50:45;;;;;;;7.13;5.93;;;;;;;;;;5022987;28;20025;-82
2022/09/04 12:53:11;;;;;;;5.88;4.97;;;;;;;;;;5031073;28;20037;-82
2022/09/04 12:55:40;;;;;;;8.05;6.20;;;;;;;;;;5025033;28;20077;-82
2022/09/04 12:58:06;;;;;;;7.32;5.93;;;;;;;;;;5029648;28;20037;-81
2022/09/04 13:00:37;;;;;;;6.80;5.72;;;;;;;;;;5029741;28;20341;-82
2022/09/04 13:03:22;;;;;;;6.63;5.63;;;;;;;;;;5034749;28;20507;-81
2022/09/04 13:06:02;;;;;;;6.00;5.07;;;;;;;;;;5027406;28;20025;-82
2022/09/04 13:08:28;;;;;;;6.43;5.70;;;;;;;;;;5033104;28;20022;-82
2022/09/04 13:11:00;;;;;;;6.35;5.40;;;;;;;;;;5029859;28;20067;-83
2022/09/04 13:13:55;;;;;;;6.72;6.03;;;;;;;;;;5036137;28;20030;-82
2022/09/04 13:16:29;;;;;;;7.00;6.10;;;;;;;;;;5018576;28;20025;-82
2022/09/04 13:19:10;;;;;;;6.63;5.47;;;;;;;;;;5024717;28;20079;-81
2022/09/04 13:21:50;;;;;;;6.30;5.43;;;;;;;;;;5031466;28;20575;-83
2022/09/04 13:24:34;;;;;;;5.97;5.35;;;;;;;;;;5033912;28;20431;-82
2022/09/04 13:27:25;;;;;;;6.47;5.50;;;;;;;;;;5036221;28;20025;-82
2022/09/04 13:30:17;;;;;;;7.10;4.82;;;;;;;;;;5031057;28;20033;-82
2022/09/04 13:32:49;;;;;;;5.47;4.80;;;;;;;;;;5032083;28;20025;-82
2022/09/04 13:35:23;;;;;;;5.82;4.60;;;;;;;;;;5036796;28;20056;-81
2022/09/04 13:38:08;;;;;;;7.32;5.55;;;;;;;;;;5027596;28;20105;-83
2022/09/04 13:40:35;;;;;;;6.10;5.40;;;;;;;;;;5018552;28;20118;-82
2022/09/04 13:43:17;;;;;;;6.25;5.40;;;;;;;;;;5029300;28;20022;-81
2022/09/04 13:45:49;;;;;;;6.15;5.10;;;;;;;;;;5035117;28;20057;-82
2022/09/04 13:48:31;;;;;;;6.75;5.13;;;;;;;;;;5025308;28;20452;-82
2022/09/04 13:51:01;;;;;;;6.97;5.40;;;;;;;;;;5020301;28;20547;-82
2022/09/04 13:53:37;;;;;;;6.15;5.03;;;;;;;;;;5022130;28;20275;-82
2022/09/04 13:56:06;;;;;;;6.88;4.88;;;;;;;;;;5036918;28;20064;-82
2022/09/04 13:58:34;;;;;;;5.90;4.90;;;;;;;;;;5034056;28;20029;-82
2022/09/04 14:01:05;;;;;;;5.78;5.07;;;;;;;;;;5039091;28;20029;-82
2022/09/04 14:03:40;;;;;;;5.97;5.20;;;;;;;;;;5039776;28;20026;-82
2022/09/04 14:06:11;;;;;;;6.00;4.85;;;;;;;;;;5037387;28;20049;-82
2022/09/04 14:08:38;;;;;;;5.95;4.50;;;;;;;;;;5030128;28;20528;-82
2022/09/04 14:11:07;;;;;;;8.07;4.85;;;;;;;;;;5040496;28;20028;-84
2022/09/04 14:13:36;;;;;;;6.40;4.53;;;;;;;;;;5038637;28;20060;-85
2022/09/04 14:16:07;;;;;;;5.80;4.32;;;;;;;;;;5035054;28;20242;-83
2022/09/04 14:18:37;;;;;;;5.25;4.32;;;;;;;;;;5042343;28;20021;-81
2022/09/04 14:21:09;;;;;;;7.15;5.20;;;;;;;;;;5039950;28;20030;-84
2022/09/04 14:24:08;;;;;;;6.07;4.60;;;;;;;;;;5041096;28;20053;-83
2022/09/04 14:26:35;;;;;;;6.45;5.03;;;;;;;;;;5013444;28;20034;-82
2022/09/04 14:29:21;;;;;;;5.90;4.78;;;;;;;;;;5015621;28;20034;-83
2022/09/04 14:31:58;;;;;;;5.63;4.22;;;;;;;;;;5023550;28;20022;-83
2022/09/04 14:34:42;;;;;;;6.25;4.50;;;;;;;;;;5020539;28;20031;-82
2022/09/04 14:37:23;;;;;;;5.38;4.60;;;;;;;;;;5004677;28;20038;-83
2022/09/04 14:40:02;;;;;;;6.18;4.75;;;;;;;;;;5016508;28;20236;-83
2022/09/04 14:42:32;;;;;;;5.65;4.55;;;;;;;;;;5005276;28;20038;-83
2022/09/04 14:45:16;;;;;;;7.10;4.57;;;;;;;;;;5020402;28;20478;-83
2022/09/04 14:47:46;;;;;;;6.25;4.45;;;;;;;;;;5009014;28;20026;-82
2022/09/04 14:50:13;;;;;;;6.90;5.18;;;;;;;;;;5007888;28;20037;-82
2022/09/04 14:52:51;;;;;;;5.60;4.47;;;;;;;;;;5009497;28;20030;-83
2022/09/04 14:55:27;;;;;;;5.20;4.00;;;;;;;;;;5011918;28;20048;-83
2022/09/04 14:58:18;;;;;;;6.03;4.30;;;;;;;;;;5016526;28;20098;-83
2022/09/04 15:01:03;;;;;;;5.05;3.90;;;;;;;;;;5010972;28;20053;-83
2022/09/04 15:03:49;;;;;;;5.38;4.00;;;;;;;;;;5027732;28;20033;-82
2022/09/04 15:06:17;;;;;;;5.25;3.80;;;;;;;;;;5020750;28;20038;-82
2022/09/04 15:08:43;;;;;;;5.65;3.70;;;;;;;;;;5038667;28;20507;-82
2022/09/04 15:11:12;;;;;;;4.80;3.90;;;;;;;;;;5034829;28;20061;-82
2022/09/04 15:13:50;;;;;;;5.70;3.60;;;;;;;;;;5032258;28;20030;-83
2022/09/04 15:16:28;;;;;;;5.22;3.80;;;;;;;;;;5037865;28;20026;-83
2022/09/04 15:18:57;;;;;;;7.30;4.03;;;;;;;;;;5042473;28;20069;-82
2022/09/04 15:21:29;;;;;;;5.43;4.20;;;;;;;;;;5039888;28;20340;-83
2022/09/04 15:24:13;;;;;;;5.50;4.10;;;;;;;;;;5052757;28;20116;-84
2022/09/04 15:26:50;;;;;;;6.25;5.07;;;;;;;;;;5034736;28;20065;-83
2022/09/04 15:29:35;;;;;;;7.25;5.68;;;;;;;;;;5044687;28;20025;-84
2022/09/04 15:32:04;;;;;;;6.55;5.28;;;;;;;;;;5046322;28;20037;-84
2022/09/04 15:34:31;;;;;;;6.65;5.88;;;;;;;;;;5039126;28;20029;-84
2022/09/04 15:37:11;;;;;;;6.95;5.72;;;;;;;;;;5047146;28;20026;-83